sensor_id;sensor_type;location;lat;lon;timestamp;pressure;altitude;pressure_sealevel;temperature;humidity
38267;BME280;24063;51.794;19.578;2022-12-11T00:00:09;97580.74;;;-2.26;100.00
38267;BME280;24063;51.794;19.578;2022-12-11T00:01:28;97581.48;;;-2.28;100.00
38267;BME280;24063;51.794;19.578;2022-12-11T00:02:30;97583.34;;;-2.30;100.00
38267;BME280;24063;51.794;19.578;2022-12-11T00:03:33;97582.21;;;-2.32;100.00
38267;BME280;24063;51.794;19.578;2022-12-11T00:04:35;97579.99;;;-2.33;100.00
38267;BME280;24063;51.794;19.578;2022-12-11T00:05:40;97581.13;;;-2.33;100.00
38267;BME280;24063;51.794;19.578;2022-12-11T00:06:42;97579.73;;;-2.33;100.00
38267;BME280;24063;51.794;19.578;2022-12-11T00:07:44;97580.88;;;-2.36;100.00
38267;BME280;24063;51.794;19.578;2022-12-11T00:08:47;97581.10;;;-2.39;100.00
38267;BME280;24063;51.794;19.578;2022-12-11T00:09:51;97581.80;;;-2.40;100.00
38267;BME280;24063;51.794;19.578;2022-12-11T00:10:53;97583.81;;;-2.42;100.00
38267;BME280;24063;51.794;19.578;2022-12-11T00:11:55;97584.88;;;-2.43;100.00
38267;BME280;24063;51.794;19.578;2022-12-11T00:12:57;97584.69;;;-2.46;100.00
38267;BME280;24063;51.794;19.578;2022-12-11T00:13:59;97580.12;;;-2.48;100.00
38267;BME280;24063;51.794;19.578;2022-12-11T00:15:01;97581.88;;;-2.49;100.00
38267;BME280;24063;51.794;19.578;2022-12-11T00:16:03;97578.76;;;-2.51;100.00
38267;BME280;24063;51.794;19.578;2022-12-11T00:17:05;97578.80;;;-2.51;100.00
38267;BME280;24063;51.794;19.578;2022-12-11T00:18:11;97579.33;;;-2.51;100.00
38267;BME280;24063;51.794;19.578;2022-12-11T00:19:14;97576.84;;;-2.51;100.00
38267;BME280;24063;51.794;19.578;2022-12-11T00:20:16;97573.70;;;-2.52;100.00
38267;BME280;24063;51.794;19.578;2022-12-11T00:21:18;97574.05;;;-2.53;100.00
38267;BME280;24063;51.794;19.578;2022-12-11T00:22:20;97574.65;;;-2.52;100.00
38267;BME280;24063;51.794;19.578;2022-12-11T00:23:22;97571.16;;;-2.52;100.00
38267;BME280;24063;51.794;19.578;2022-12-11T00:24:24;97570.80;;;-2.53;100.00
38267;BME280;24063;51.794;19.578;2022-12-11T00:25:26;97574.40;;;-2.55;100.00
38267;BME280;24063;51.794;19.578;2022-12-11T00:26:28;97569.48;;;-2.56;100.00
38267;BME280;24063;51.794;19.578;2022-12-11T00:27:30;97568.00;;;-2.55;100.00
38267;BME280;24063;51.794;19.578;2022-12-11T00:28:33;97565.23;;;-2.54;100.00
38267;BME280;24063;51.794;19.578;2022-12-11T00:29:35;97568.69;;;-2.53;100.00
38267;BME280;24063;51.794;19.578;2022-12-11T00:30:41;97568.44;;;-2.53;100.00
38267;BME280;24063;51.794;19.578;2022-12-11T00:31:43;97570.98;;;-2.51;100.00
38267;BME280;24063;51.794;19.578;2022-12-11T00:32:45;97570.67;;;-2.48;100.00
38267;BME280;24063;51.794;19.578;2022-12-11T00:33:48;97569.32;;;-2.47;100.00
38267;BME280;24063;51.794;19.578;2022-12-11T00:34:50;97568.16;;;-2.50;100.00
38267;BME280;24063;51.794;19.578;2022-12-11T00:35:52;97568.84;;;-2.52;100.00
38267;BME280;24063;51.794;19.578;2022-12-11T00:36:54;97569.38;;;-2.55;100.00
38267;BME280;24063;51.794;19.578;2022-12-11T00:37:56;97569.09;;;-2.58;100.00
38267;BME280;24063;51.794;19.578;2022-12-11T00:38:57;97570.48;;;-2.60;100.00
38267;BME280;24063;51.794;19.578;2022-12-11T00:39:59;97574.13;;;-2.62;100.00
38267;BME280;24063;51.794;19.578;2022-12-11T00:41:01;97579.41;;;-2.62;100.00
38267;BME280;24063;51.794;19.578;2022-12-11T00:42:03;97580.02;;;-2.62;100.00
38267;BME280;24063;51.794;19.578;2022-12-11T00:43:05;97579.34;;;-2.64;100.00
38267;BME280;24063;51.794;19.578;2022-12-11T00:44:07;97579.48;;;-2.63;100.00
38267;BME280;24063;51.794;19.578;2022-12-11T00:45:09;97578.91;;;-2.64;100.00
38267;BME280;24063;51.794;19.578;2022-12-11T00:46:13;97577.86;;;-2.65;100.00
38267;BME280;24063;51.794;19.578;2022-12-11T00:47:15;97574.52;;;-2.65;100.00
38267;BME280;24063;51.794;19.578;2022-12-11T00:48:16;97576.18;;;-2.64;100.00
38267;BME280;24063;51.794;19.578;2022-12-11T00:49:18;97578.05;;;-2.63;100.00
38267;BME280;24063;51.794;19.578;2022-12-11T00:50:20;97580.60;;;-2.63;100.00
38267;BME280;24063;51.794;19.578;2022-12-11T00:51:22;97581.27;;;-2.64;100.00
38267;BME280;24063;51.794;19.578;2022-12-11T00:52:24;97583.79;;;-2.64;100.00
38267;BME280;24063;51.794;19.578;2022-12-11T00:53:25;97582.61;;;-2.63;100.00
38267;BME280;24063;51.794;19.578;2022-12-11T00:54:27;97579.61;;;-2.62;100.00
38267;BME280;24063;51.794;19.578;2022-12-11T00:55:30;97583.30;;;-2.59;100.00
38267;BME280;24063;51.794;19.578;2022-12-11T00:56:32;97583.77;;;-2.58;100.00
38267;BME280;24063;51.794;19.578;2022-12-11T00:57:34;97583.19;;;-2.55;100.00
38267;BME280;24063;51.794;19.578;2022-12-11T00:58:36;97583.48;;;-2.54;100.00
38267;BME280;24063;51.794;19.578;2022-12-11T00:59:38;97581.35;;;-2.56;100.00
38267;BME280;24063;51.794;19.578;2022-12-11T01:00:40;97580.47;;;-2.57;100.00
38267;BME280;24063;51.794;19.578;2022-12-11T01:01:43;97578.73;;;-2.58;100.00
38267;BME280;24063;51.794;19.578;2022-12-11T01:02:45;97580.45;;;-2.59;100.00
38267;BME280;24063;51.794;19.578;2022-12-11T01:03:48;97579.19;;;-2.60;100.00
38267;BME280;24063;51.794;19.578;2022-12-11T01:04:50;97581.50;;;-2.62;100.00
38267;BME280;24063;51.794;19.578;2022-12-11T01:05:54;97579.14;;;-2.62;100.00
38267;BME280;24063;51.794;19.578;2022-12-11T01:06:56;97577.69;;;-2.61;100.00
38267;BME280;24063;51.794;19.578;2022-12-11T01:07:58;97578.74;;;-2.60;100.00
38267;BME280;24063;51.794;19.578;2022-12-11T01:09:01;97575.75;;;-2.61;100.00
38267;BME280;24063;51.794;19.578;2022-12-11T01:10:21;97574.00;;;-2.61;100.00
38267;BME280;24063;51.794;19.578;2022-12-11T01:11:27;97572.05;;;-2.62;100.00
38267;BME280;24063;51.794;19.578;2022-12-11T01:12:28;97567.25;;;-2.62;100.00
38267;BME280;24063;51.794;19.578;2022-12-11T01:13:30;97565.90;;;-2.61;100.00
38267;BME280;24063;51.794;19.578;2022-12-11T01:14:32;97565.04;;;-2.61;100.00
38267;BME280;24063;51.794;19.578;2022-12-11T01:15:40;97560.38;;;-2.62;100.00
38267;BME280;24063;51.794;19.578;2022-12-11T01:16:42;97562.13;;;-2.63;100.00
38267;BME280;24063;51.794;19.578;2022-12-11T01:17:44;97561.54;;;-2.65;100.00
38267;BME280;24063;51.794;19.578;2022-12-11T01:18:46;97563.78;;;-2.66;100.00
38267;BME280;24063;51.794;19.578;2022-12-11T01:19:48;97567.29;;;-2.68;100.00
38267;BME280;24063;51.794;19.578;2022-12-11T01:20:50;97563.14;;;-2.68;100.00
38267;BME280;24063;51.794;19.578;2022-12-11T01:21:53;97563.39;;;-2.69;100.00
38267;BME280;24063;51.794;19.578;2022-12-11T01:22:57;97561.93;;;-2.70;100.00
38267;BME280;24063;51.794;19.578;2022-12-11T01:24:00;97559.85;;;-2.70;100.00
38267;BME280;24063;51.794;19.578;2022-12-11T01:25:02;97559.30;;;-2.70;100.00
38267;BME280;24063;51.794;19.578;2022-12-11T01:26:09;97555.70;;;-2.69;100.00
38267;BME280;24063;51.794;19.578;2022-12-11T01:27:11;97557.64;;;-2.70;100.00
38267;BME280;24063;51.794;19.578;2022-12-11T01:28:14;97557.44;;;-2.71;100.00
38267;BME280;24063;51.794;19.578;2022-12-11T01:29:15;97554.75;;;-2.72;100.00
38267;BME280;24063;51.794;19.578;2022-12-11T01:30:19;97555.34;;;-2.74;100.00
38267;BME280;24063;51.794;19.578;2022-12-11T01:31:21;97554.09;;;-2.75;100.00
38267;BME280;24063;51.794;19.578;2022-12-11T01:32:23;97554.02;;;-2.76;100.00
38267;BME280;24063;51.794;19.578;2022-12-11T01:33:25;97554.25;;;-2.76;100.00
38267;BME280;24063;51.794;19.578;2022-12-11T01:34:29;97552.66;;;-2.78;100.00
38267;BME280;24063;51.794;19.578;2022-12-11T01:35:31;97552.67;;;-2.78;100.00
38267;BME280;24063;51.794;19.578;2022-12-11T01:36:33;97553.13;;;-2.77;100.00
38267;BME280;24063;51.794;19.578;2022-12-11T01:37:35;97551.75;;;-2.77;100.00
38267;BME280;24063;51.794;19.578;2022-12-11T01:38:36;97549.25;;;-2.77;100.00
38267;BME280;24063;51.794;19.578;2022-12-11T01:39:38;97549.74;;;-2.77;100.00
38267;BME280;24063;51.794;19.578;2022-12-11T01:40:46;97543.19;;;-2.77;100.00
38267;BME280;24063;51.794;19.578;2022-12-11T01:41:56;97542.81;;;-2.74;100.00
38267;BME280;24063;51.794;19.578;2022-12-11T01:42:58;97543.45;;;-2.73;100.00
38267;BME280;24063;51.794;19.578;2022-12-11T01:46:26;97543.04;;;-2.72;100.00
38267;BME280;24063;51.794;19.578;2022-12-11T01:47:28;97539.33;;;-2.72;100.00
38267;BME280;24063;51.794;19.578;2022-12-11T01:48:31;97535.95;;;-2.72;100.00
38267;BME280;24063;51.794;19.578;2022-12-11T01:49:39;97541.01;;;-2.71;100.00
38267;BME280;24063;51.794;19.578;2022-12-11T01:50:50;97536.31;;;-2.72;100.00
38267;BME280;24063;51.794;19.578;2022-12-11T01:52:10;97537.53;;;-2.71;100.00
38267;BME280;24063;51.794;19.578;2022-12-11T01:53:20;97533.64;;;-2.69;100.00
38267;BME280;24063;51.794;19.578;2022-12-11T01:54:27;97530.95;;;-2.67;100.00
38267;BME280;24063;51.794;19.578;2022-12-11T01:55:31;97530.91;;;-2.67;100.00
38267;BME280;24063;51.794;19.578;2022-12-11T01:56:35;97531.64;;;-2.66;100.00
38267;BME280;24063;51.794;19.578;2022-12-11T01:57:42;97531.66;;;-2.65;100.00
38267;BME280;24063;51.794;19.578;2022-12-11T01:58:50;97530.48;;;-2.64;100.00
38267;BME280;24063;51.794;19.578;2022-12-11T01:59:53;97525.95;;;-2.64;100.00
38267;BME280;24063;51.794;19.578;2022-12-11T02:00:57;97528.31;;;-2.66;100.00
38267;BME280;24063;51.794;19.578;2022-12-11T02:02:06;97529.36;;;-2.67;100.00
38267;BME280;24063;51.794;19.578;2022-12-11T02:03:09;97528.14;;;-2.69;100.00
38267;BME280;24063;51.794;19.578;2022-12-11T02:04:13;97527.59;;;-2.70;100.00
38267;BME280;24063;51.794;19.578;2022-12-11T02:05:15;97528.58;;;-2.70;100.00
38267;BME280;24063;51.794;19.578;2022-12-11T02:06:41;97525.11;;;-2.70;100.00
38267;BME280;24063;51.794;19.578;2022-12-11T02:07:51;97524.36;;;-2.68;100.00
38267;BME280;24063;51.794;19.578;2022-12-11T02:08:55;97522.65;;;-2.68;100.00
38267;BME280;24063;51.794;19.578;2022-12-11T02:09:57;97519.16;;;-2.69;100.00
38267;BME280;24063;51.794;19.578;2022-12-11T02:11:15;97517.88;;;-2.71;100.00
38267;BME280;24063;51.794;19.578;2022-12-11T02:12:29;97515.45;;;-2.73;100.00
38267;BME280;24063;51.794;19.578;2022-12-11T02:13:49;97512.56;;;-2.73;100.00
38267;BME280;24063;51.794;19.578;2022-12-11T02:16:43;97506.32;;;-2.74;100.00
38267;BME280;24063;51.794;19.578;2022-12-11T02:17:50;97503.23;;;-2.76;100.00
38267;BME280;24063;51.794;19.578;2022-12-11T02:19:28;97499.63;;;-2.78;100.00
38267;BME280;24063;51.794;19.578;2022-12-11T02:20:39;97497.20;;;-2.79;100.00
38267;BME280;24063;51.794;19.578;2022-12-11T02:21:49;97493.46;;;-2.80;100.00
38267;BME280;24063;51.794;19.578;2022-12-11T02:26:01;97486.08;;;-2.83;100.00
38267;BME280;24063;51.794;19.578;2022-12-11T02:27:28;97484.51;;;-2.84;100.00
38267;BME280;24063;51.794;19.578;2022-12-11T02:28:54;97482.16;;;-2.87;100.00
38267;BME280;24063;51.794;19.578;2022-12-11T02:31:35;97480.39;;;-2.88;100.00
38267;BME280;24063;51.794;19.578;2022-12-11T02:32:45;97479.73;;;-2.88;100.00
38267;BME280;24063;51.794;19.578;2022-12-11T02:34:00;97480.14;;;-2.87;100.00
38267;BME280;24063;51.794;19.578;2022-12-11T02:35:11;97481.84;;;-2.87;100.00
38267;BME280;24063;51.794;19.578;2022-12-11T02:36:18;97485.46;;;-2.86;100.00
38267;BME280;24063;51.794;19.578;2022-12-11T02:37:26;97487.12;;;-2.87;100.00
38267;BME280;24063;51.794;19.578;2022-12-11T02:38:34;97485.83;;;-2.86;100.00
38267;BME280;24063;51.794;19.578;2022-12-11T02:39:40;97484.02;;;-2.86;100.00
38267;BME280;24063;51.794;19.578;2022-12-11T02:40:48;97485.23;;;-2.85;100.00
38267;BME280;24063;51.794;19.578;2022-12-11T02:41:54;97482.19;;;-2.84;100.00
38267;BME280;24063;51.794;19.578;2022-12-11T02:43:02;97485.60;;;-2.83;100.00
38267;BME280;24063;51.794;19.578;2022-12-11T02:44:06;97484.84;;;-2.86;100.00
38267;BME280;24063;51.794;19.578;2022-12-11T02:45:10;97482.41;;;-2.87;100.00
38267;BME280;24063;51.794;19.578;2022-12-11T02:46:17;97481.23;;;-2.88;100.00
38267;BME280;24063;51.794;19.578;2022-12-11T02:47:22;97479.84;;;-2.90;100.00
38267;BME280;24063;51.794;19.578;2022-12-11T02:48:26;97481.59;;;-2.91;100.00
38267;BME280;24063;51.794;19.578;2022-12-11T02:49:29;97475.66;;;-2.93;100.00
38267;BME280;24063;51.794;19.578;2022-12-11T02:50:33;97476.88;;;-2.92;100.00
38267;BME280;24063;51.794;19.578;2022-12-11T02:51:40;97476.80;;;-2.91;100.00
38267;BME280;24063;51.794;19.578;2022-12-11T02:52:45;97475.02;;;-2.92;100.00
38267;BME280;24063;51.794;19.578;2022-12-11T02:53:52;97476.82;;;-2.93;100.00
38267;BME280;24063;51.794;19.578;2022-12-11T02:55:00;97474.63;;;-2.96;100.00
38267;BME280;24063;51.794;19.578;2022-12-11T02:56:21;97478.80;;;-2.97;100.00
38267;BME280;24063;51.794;19.578;2022-12-11T02:57:38;97478.70;;;-2.99;100.00
38267;BME280;24063;51.794;19.578;2022-12-11T02:58:47;97482.40;;;-3.01;100.00
38267;BME280;24063;51.794;19.578;2022-12-11T02:59:58;97486.18;;;-3.00;100.00
38267;BME280;24063;51.794;19.578;2022-12-11T03:01:00;97487.94;;;-3.00;100.00
38267;BME280;24063;51.794;19.578;2022-12-11T03:02:03;97492.44;;;-2.99;100.00
38267;BME280;24063;51.794;19.578;2022-12-11T03:03:05;97493.08;;;-2.99;100.00
38267;BME280;24063;51.794;19.578;2022-12-11T03:04:08;97493.52;;;-2.98;100.00
38267;BME280;24063;51.794;19.578;2022-12-11T03:05:11;97489.70;;;-2.99;100.00
38267;BME280;24063;51.794;19.578;2022-12-11T03:06:18;97494.40;;;-2.99;100.00
38267;BME280;24063;51.794;19.578;2022-12-11T03:07:26;97492.66;;;-3.01;100.00
38267;BME280;24063;51.794;19.578;2022-12-11T03:08:30;97493.77;;;-3.03;100.00
38267;BME280;24063;51.794;19.578;2022-12-11T03:09:33;97493.49;;;-3.04;100.00
38267;BME280;24063;51.794;19.578;2022-12-11T03:10:36;97495.79;;;-3.06;100.00
38267;BME280;24063;51.794;19.578;2022-12-11T03:11:38;97493.96;;;-3.08;100.00
38267;BME280;24063;51.794;19.578;2022-12-11T03:12:43;97494.05;;;-3.10;100.00
38267;BME280;24063;51.794;19.578;2022-12-11T03:13:53;97498.70;;;-3.11;100.00
38267;BME280;24063;51.794;19.578;2022-12-11T03:15:02;97495.77;;;-3.13;100.00
38267;BME280;24063;51.794;19.578;2022-12-11T03:17:18;97494.05;;;-3.15;100.00
38267;BME280;24063;51.794;19.578;2022-12-11T03:18:55;97490.36;;;-3.16;100.00
38267;BME280;24063;51.794;19.578;2022-12-11T03:20:13;97488.92;;;-3.18;100.00
38267;BME280;24063;51.794;19.578;2022-12-11T03:21:35;97492.50;;;-3.19;100.00
38267;BME280;24063;51.794;19.578;2022-12-11T03:23:05;97490.88;;;-3.20;100.00
38267;BME280;24063;51.794;19.578;2022-12-11T03:24:32;97494.41;;;-3.20;100.00
38267;BME280;24063;51.794;19.578;2022-12-11T03:25:56;97492.76;;;-3.21;100.00
38267;BME280;24063;51.794;19.578;2022-12-11T03:27:14;97488.10;;;-3.24;100.00
38267;BME280;24063;51.794;19.578;2022-12-11T03:29:38;97491.39;;;-3.25;100.00
38267;BME280;24063;51.794;19.578;2022-12-11T03:30:44;97490.70;;;-3.25;100.00
38267;BME280;24063;51.794;19.578;2022-12-11T03:32:08;97494.82;;;-3.26;100.00
38267;BME280;24063;51.794;19.578;2022-12-11T03:33:24;97494.17;;;-3.27;100.00
38267;BME280;24063;51.794;19.578;2022-12-11T03:34:38;97491.91;;;-3.27;100.00
38267;BME280;24063;51.794;19.578;2022-12-11T03:35:53;97493.58;;;-3.27;100.00
38267;BME280;24063;51.794;19.578;2022-12-11T03:36:59;97487.23;;;-3.28;100.00
38267;BME280;24063;51.794;19.578;2022-12-11T03:38:10;97491.34;;;-3.27;100.00
38267;BME280;24063;51.794;19.578;2022-12-11T03:39:20;97491.09;;;-3.27;100.00
38267;BME280;24063;51.794;19.578;2022-12-11T03:40:27;97489.84;;;-3.26;100.00
38267;BME280;24063;51.794;19.578;2022-12-11T03:41:35;97487.95;;;-3.27;100.00
38267;BME280;24063;51.794;19.578;2022-12-11T03:42:39;97487.23;;;-3.28;100.00
38267;BME280;24063;51.794;19.578;2022-12-11T03:43:44;97485.16;;;-3.27;100.00
38267;BME280;24063;51.794;19.578;2022-12-11T03:44:53;97483.25;;;-3.27;100.00
38267;BME280;24063;51.794;19.578;2022-12-11T03:45:58;97481.46;;;-3.27;100.00
38267;BME280;24063;51.794;19.578;2022-12-11T03:47:06;97482.14;;;-3.27;100.00
38267;BME280;24063;51.794;19.578;2022-12-11T03:48:10;97478.05;;;-3.28;100.00
38267;BME280;24063;51.794;19.578;2022-12-11T03:49:18;97478.77;;;-3.27;100.00
38267;BME280;24063;51.794;19.578;2022-12-11T03:50:26;97477.95;;;-3.26;100.00
38267;BME280;24063;51.794;19.578;2022-12-11T03:51:32;97480.80;;;-3.27;100.00
38267;BME280;24063;51.794;19.578;2022-12-11T03:52:36;97476.09;;;-3.28;100.00
38267;BME280;24063;51.794;19.578;2022-12-11T03:53:47;97479.19;;;-3.28;100.00
38267;BME280;24063;51.794;19.578;2022-12-11T03:54:49;97477.73;;;-3.28;100.00
38267;BME280;24063;51.794;19.578;2022-12-11T03:55:53;97477.63;;;-3.27;100.00
38267;BME280;24063;51.794;19.578;2022-12-11T03:57:01;97476.70;;;-3.28;100.00
38267;BME280;24063;51.794;19.578;2022-12-11T03:58:04;97478.52;;;-3.30;100.00
38267;BME280;24063;51.794;19.578;2022-12-11T03:59:06;97478.66;;;-3.28;100.00
38267;BME280;24063;51.794;19.578;2022-12-11T04:00:13;97479.88;;;-3.28;100.00
38267;BME280;24063;51.794;19.578;2022-12-11T04:01:15;97479.59;;;-3.27;100.00
38267;BME280;24063;51.794;19.578;2022-12-11T04:02:17;97482.86;;;-3.26;100.00
38267;BME280;24063;51.794;19.578;2022-12-11T04:03:19;97485.67;;;-3.24;100.00
38267;BME280;24063;51.794;19.578;2022-12-11T04:04:20;97482.40;;;-3.24;100.00
38267;BME280;24063;51.794;19.578;2022-12-11T04:05:22;97478.52;;;-3.25;100.00
38267;BME280;24063;51.794;19.578;2022-12-11T04:06:24;97478.73;;;-3.26;100.00
38267;BME280;24063;51.794;19.578;2022-12-11T04:07:26;97477.39;;;-3.27;100.00
38267;BME280;24063;51.794;19.578;2022-12-11T04:08:29;97477.35;;;-3.28;100.00
38267;BME280;24063;51.794;19.578;2022-12-11T04:09:32;97471.87;;;-3.29;100.00
38267;BME280;24063;51.794;19.578;2022-12-11T04:10:34;97472.56;;;-3.30;100.00
38267;BME280;24063;51.794;19.578;2022-12-11T04:11:35;97473.50;;;-3.29;100.00
38267;BME280;24063;51.794;19.578;2022-12-11T04:12:37;97473.61;;;-3.29;100.00
38267;BME280;24063;51.794;19.578;2022-12-11T04:13:40;97476.70;;;-3.27;100.00
38267;BME280;24063;51.794;19.578;2022-12-11T04:14:42;97477.70;;;-3.25;100.00
38267;BME280;24063;51.794;19.578;2022-12-11T04:16:02;97476.87;;;-3.23;100.00
38267;BME280;24063;51.794;19.578;2022-12-11T04:17:04;97477.43;;;-3.22;100.00
38267;BME280;24063;51.794;19.578;2022-12-11T04:18:07;97479.25;;;-3.21;100.00
38267;BME280;24063;51.794;19.578;2022-12-11T04:19:27;97482.09;;;-3.24;100.00
38267;BME280;24063;51.794;19.578;2022-12-11T04:20:47;97483.14;;;-3.25;100.00
38267;BME280;24063;51.794;19.578;2022-12-11T04:22:10;97481.05;;;-3.28;100.00
38267;BME280;24063;51.794;19.578;2022-12-11T04:23:56;97483.97;;;-3.27;100.00
38267;BME280;24063;51.794;19.578;2022-12-11T04:25:18;97483.86;;;-3.28;100.00
38267;BME280;24063;51.794;19.578;2022-12-11T04:26:31;97482.64;;;-3.28;100.00
38267;BME280;24063;51.794;19.578;2022-12-11T04:27:33;97484.84;;;-3.28;100.00
38267;BME280;24063;51.794;19.578;2022-12-11T04:28:53;97484.24;;;-3.30;100.00
38267;BME280;24063;51.794;19.578;2022-12-11T04:29:55;97482.70;;;-3.31;100.00
38267;BME280;24063;51.794;19.578;2022-12-11T04:30:58;97480.30;;;-3.31;100.00
38267;BME280;24063;51.794;19.578;2022-12-11T04:32:02;97476.57;;;-3.32;100.00
38267;BME280;24063;51.794;19.578;2022-12-11T04:33:31;97475.08;;;-3.33;100.00
38267;BME280;24063;51.794;19.578;2022-12-11T04:34:51;97475.68;;;-3.33;100.00
38267;BME280;24063;51.794;19.578;2022-12-11T04:35:57;97475.52;;;-3.32;100.00
38267;BME280;24063;51.794;19.578;2022-12-11T04:37:25;97476.86;;;-3.33;100.00
38267;BME280;24063;51.794;19.578;2022-12-11T04:38:27;97476.95;;;-3.34;100.00
38267;BME280;24063;51.794;19.578;2022-12-11T04:39:29;97477.03;;;-3.34;100.00
38267;BME280;24063;51.794;19.578;2022-12-11T04:40:31;97479.30;;;-3.34;100.00
38267;BME280;24063;51.794;19.578;2022-12-11T04:41:33;97481.73;;;-3.34;100.00
38267;BME280;24063;51.794;19.578;2022-12-11T04:42:47;97475.23;;;-3.34;100.00
38267;BME280;24063;51.794;19.578;2022-12-11T04:44:13;97471.70;;;-3.34;100.00
38267;BME280;24063;51.794;19.578;2022-12-11T04:45:15;97470.68;;;-3.33;100.00
38267;BME280;24063;51.794;19.578;2022-12-11T04:46:22;97467.84;;;-3.34;100.00
38267;BME280;24063;51.794;19.578;2022-12-11T04:47:30;97466.68;;;-3.36;100.00
38267;BME280;24063;51.794;19.578;2022-12-11T04:48:33;97462.54;;;-3.37;100.00
38267;BME280;24063;51.794;19.578;2022-12-11T04:49:35;97463.68;;;-3.38;100.00
38267;BME280;24063;51.794;19.578;2022-12-11T04:50:37;97466.77;;;-3.39;100.00
38267;BME280;24063;51.794;19.578;2022-12-11T04:51:39;97463.58;;;-3.40;100.00
38267;BME280;24063;51.794;19.578;2022-12-11T04:52:41;97462.32;;;-3.40;100.00
38267;BME280;24063;51.794;19.578;2022-12-11T04:53:44;97458.64;;;-3.41;100.00
38267;BME280;24063;51.794;19.578;2022-12-11T04:54:46;97462.96;;;-3.41;100.00
38267;BME280;24063;51.794;19.578;2022-12-11T04:55:49;97461.48;;;-3.42;100.00
38267;BME280;24063;51.794;19.578;2022-12-11T04:56:51;97457.73;;;-3.41;100.00
38267;BME280;24063;51.794;19.578;2022-12-11T04:57:52;97458.30;;;-3.40;100.00
38267;BME280;24063;51.794;19.578;2022-12-11T04:58:54;97458.58;;;-3.39;100.00
38267;BME280;24063;51.794;19.578;2022-12-11T04:59:56;97453.30;;;-3.41;100.00
38267;BME280;24063;51.794;19.578;2022-12-11T05:00:59;97451.92;;;-3.43;100.00
38267;BME280;24063;51.794;19.578;2022-12-11T05:02:01;97454.27;;;-3.44;100.00
38267;BME280;24063;51.794;19.578;2022-12-11T05:03:02;97450.90;;;-3.45;100.00
38267;BME280;24063;51.794;19.578;2022-12-11T05:04:04;97449.03;;;-3.47;100.00
38267;BME280;24063;51.794;19.578;2022-12-11T05:05:08;97447.85;;;-3.48;100.00
38267;BME280;24063;51.794;19.578;2022-12-11T05:06:12;97444.48;;;-3.49;100.00
38267;BME280;24063;51.794;19.578;2022-12-11T05:07:14;97444.88;;;-3.46;100.00
38267;BME280;24063;51.794;19.578;2022-12-11T05:08:20;97443.51;;;-3.47;100.00
38267;BME280;24063;51.794;19.578;2022-12-11T05:09:22;97438.14;;;-3.46;100.00
38267;BME280;24063;51.794;19.578;2022-12-11T05:10:23;97438.88;;;-3.47;100.00
38267;BME280;24063;51.794;19.578;2022-12-11T05:11:25;97441.98;;;-3.49;100.00
38267;BME280;24063;51.794;19.578;2022-12-11T05:12:27;97440.44;;;-3.51;100.00
38267;BME280;24063;51.794;19.578;2022-12-11T05:13:29;97438.58;;;-3.51;100.00
38267;BME280;24063;51.794;19.578;2022-12-11T05:14:31;97436.88;;;-3.52;100.00
38267;BME280;24063;51.794;19.578;2022-12-11T05:15:33;97434.85;;;-3.54;100.00
38267;BME280;24063;51.794;19.578;2022-12-11T05:16:35;97431.14;;;-3.57;100.00
38267;BME280;24063;51.794;19.578;2022-12-11T05:17:37;97431.27;;;-3.60;100.00
38267;BME280;24063;51.794;19.578;2022-12-11T05:18:39;97429.73;;;-3.62;100.00
38267;BME280;24063;51.794;19.578;2022-12-11T05:19:41;97428.77;;;-3.62;100.00
38267;BME280;24063;51.794;19.578;2022-12-11T05:20:43;97429.55;;;-3.63;100.00
38267;BME280;24063;51.794;19.578;2022-12-11T05:21:45;97428.36;;;-3.63;100.00
38267;BME280;24063;51.794;19.578;2022-12-11T05:22:46;97430.05;;;-3.65;100.00
38267;BME280;24063;51.794;19.578;2022-12-11T05:23:48;97430.63;;;-3.65;100.00
38267;BME280;24063;51.794;19.578;2022-12-11T05:24:50;97428.20;;;-3.67;100.00
38267;BME280;24063;51.794;19.578;2022-12-11T05:25:54;97426.98;;;-3.67;100.00
38267;BME280;24063;51.794;19.578;2022-12-11T05:26:56;97428.27;;;-3.66;100.00
38267;BME280;24063;51.794;19.578;2022-12-11T05:27:57;97426.96;;;-3.64;100.00
38267;BME280;24063;51.794;19.578;2022-12-11T05:28:59;97428.05;;;-3.63;100.00
38267;BME280;24063;51.794;19.578;2022-12-11T05:30:01;97424.70;;;-3.61;100.00
38267;BME280;24063;51.794;19.578;2022-12-11T05:31:15;97427.83;;;-3.59;100.00
38267;BME280;24063;51.794;19.578;2022-12-11T05:32:17;97426.07;;;-3.59;100.00
38267;BME280;24063;51.794;19.578;2022-12-11T05:33:19;97425.35;;;-3.60;100.00
38267;BME280;24063;51.794;19.578;2022-12-11T05:34:21;97421.89;;;-3.61;100.00
38267;BME280;24063;51.794;19.578;2022-12-11T05:35:22;97422.79;;;-3.61;100.00
38267;BME280;24063;51.794;19.578;2022-12-11T05:36:27;97423.58;;;-3.63;100.00
38267;BME280;24063;51.794;19.578;2022-12-11T05:37:32;97423.27;;;-3.66;100.00
38267;BME280;24063;51.794;19.578;2022-12-11T05:38:34;97419.59;;;-3.67;100.00
38267;BME280;24063;51.794;19.578;2022-12-11T05:39:37;97422.63;;;-3.69;100.00
38267;BME280;24063;51.794;19.578;2022-12-11T05:40:40;97420.25;;;-3.71;100.00
38267;BME280;24063;51.794;19.578;2022-12-11T05:41:42;97419.04;;;-3.71;100.00
38267;BME280;24063;51.794;19.578;2022-12-11T05:42:43;97414.00;;;-3.71;100.00
38267;BME280;24063;51.794;19.578;2022-12-11T05:43:45;97416.36;;;-3.70;100.00
38267;BME280;24063;51.794;19.578;2022-12-11T05:44:48;97413.43;;;-3.70;100.00
38267;BME280;24063;51.794;19.578;2022-12-11T05:45:50;97414.48;;;-3.70;100.00
38267;BME280;24063;51.794;19.578;2022-12-11T05:46:52;97409.14;;;-3.72;100.00
38267;BME280;24063;51.794;19.578;2022-12-11T05:47:54;97411.12;;;-3.71;100.00
38267;BME280;24063;51.794;19.578;2022-12-11T05:49:00;97411.04;;;-3.71;100.00
38267;BME280;24063;51.794;19.578;2022-12-11T05:50:02;97410.77;;;-3.72;100.00
38267;BME280;24063;51.794;19.578;2022-12-11T05:51:06;97410.75;;;-3.72;100.00